الصفحة الرئيسية
METAR-TAF:

METAR-TAF

مطار :

مطار أنتونيو بي وان بات الدولي

Hagåtña, غوام, الولايات المتحدة

دائرة عرض: 13-29N, خط طول: 144-48E, ارتفاع: 91 متر

مراقبة الطقس الحالي

تاريخ ووقت الإصدار 30 دقيقة قبل الساعة 06:54UTC
ريح 9 عقدة من الشرق/الجنوب الشرقي
درجة الحرارة 29°درجة مئوية
الرطوبة 66%
ضغط 1011 hPa
الرؤية: 16.1 كم
سماء صافية

METAR: PGUM 170654Z 11009KT 10SM CLR 29/22 A2984 RMK AO2 SLP096 T02890222

زمن: 17:24 (07:24 UTC)

توقعات

تاريخ ووقت الإصدار 1ساعة و 39 دقيقة قبل الساعة 05:45UTC
التوقعات صالحة من17 الساعة 06 UTC إلى 18 الساعة 12 UTC
ريح 10 عقدة من الشرق
الرؤية: 10 كم
غيوم قليلة على ارتفاع 2500 قدم
زخات في الجوار

TAF: PGUM 170545Z 1706/1812 09010KT P6SM VCSH FEW025

أرصاد الطقس والتوقعات من أكثر من 4000 مطار (تقارير الطقس للمطار METAR والتنبؤ بالطقس بالمطارTAF).

المحطات المتاحة هي النقط الصفراء والحمراء على الخريطة.

حرك المؤشر فوق النقطة لمعرفة اسم المحطة.

ثم انقر لمعرفة أرصاد وتوقعات الطقس.

لتغيير الخارطة: اضغط على الأزرار الخضراء مع رمز الصليب الأسود للتكبير. على الزر الأخضر مع شرطة للتصغير، أو على الأسهم الخضراء للخرائط المجاورة.


METAR-TAF: